This is the latest recevied weather packets stored in our database for station/object HA2SKA-1. If no packets are shown the sender has not sent any weather packets the latest 10 day(s).
| Time | Temp. | Humidity | Pressure | Rain* | Wind** | Luminosity | Snow |
|---|---|---|---|---|---|---|---|
| 1788334512 | 26.11° C | 79% | 1024 hPa | - | - | - | - |
| 1788333612 | 24.44° C | 91% | 1024 hPa | - | - | - | - |
| 1788332712 | 23.33° C | 100% | 1024.1 hPa | - | - | - | - |
| 1788331812 | 23.89° C | 97% | 1023.9 hPa | - | - | - | - |
| 1788330911 | 22.78° C | 100% | 1023.8 hPa | - | - | - | - |
| 1788330011 | 22.22° C | 100% | 1023.6 hPa | - | - | - | - |
| 1788329111 | 22.22° C | 100% | 1023.5 hPa | - | - | - | - |
| 1788328211 | 22.78° C | 99% | 1023.7 hPa | - | - | - | - |
| 1788327311 | 21.11° C | 100% | 1023.6 hPa | - | - | - | - |
| 1788324611 | 20° C | 100% | 1024.1 hPa | - | - | - | - |
| 1788323711 | 20° C | 100% | 1023.9 hPa | - | - | - | - |
| 1788322811 | 20° C | 100% | 1024 hPa | - | - | - | - |
| 1788321911 | 18.89° C | 100% | 1023.6 hPa | - | - | - | - |
| 1788321011 | 20° C | 100% | 1023.4 hPa | - | - | - | - |
| 1788320110 | 21.11° C | 94% | 1023.2 hPa | - | - | - | - |
| 1788319210 | 20° C | 100% | 1023.2 hPa | - | - | - | - |
| 1788318310 | 20° C | 100% | 1023.1 hPa | - | - | - | - |
| 1788317410 | 18.89° C | 100% | 1023 hPa | - | - | - | - |
| 1788316510 | 19.44° C | 100% | 1023.2 hPa | - | - | - | - |
| 1788315610 | 20.56° C | 98% | 1023.1 hPa | - | - | - | - |
| 1788314710 | 18.89° C | 100% | 1023 hPa | - | - | - | - |
| 1788313810 | 20° C | 100% | 1023 hPa | - | - | - | - |
| 1788312910 | 19.44° C | 100% | 1023 hPa | - | - | - | - |
| 1788312010 | 20° C | 100% | 1023.1 hPa | - | - | - | - |
| 1788311110 | 18.89° C | 100% | 1023 hPa | - | - | - | - |
* Rain since midnight (hover to see other rain measurements)
** Current wind speed in m/s (hover to see current wind gust speed)